Coral Electra — PCAG — position and weather

sailwx.info

Track history (hours):
 
Tides and Currents Weather Stations Pressure Air Temp Water Temp Dewpoint Dewpoint Depression Visibility Wind Speed Wind Dir Waves Ship Positions

Coral Electra

Last reported at 2015-Apr-21 10:08 UTC. Time now 2015-Apr-21 13:12 UTC.
Position N 53°28' E 006°47'.

Length 14 m; draft 2 m.

Type: Port tender. MMSI: 244690019.

Date/timePositionNaut miles runAvg speedWind from/ knotsBaromVisibWave heightAir tempDewpointWater temp
2015-Apr-21 10:08N 53°28' E 006°47'2 2.3
2015-Apr-21 09:22N 53°27' E 006°49'2 0.9
2015-Apr-21 07:08N 53°28' E 006°47'2 3.0
2015-Apr-21 06:28N 53°27' E 006°49'0 0.0
2015-Apr-21 04:28N 53°27' E 006°49'0 0.1
2015-Apr-21 01:29N 53°27' E 006°50'0 0.0
2015-Apr-20 19:20N 53°27' E 006°50'3 2.4
2015-Apr-20 18:11N 53°29' E 006°46'3 1.7
2015-Apr-20 16:33N 53°27' E 006°50'0 0.4
2015-Apr-20 15:34N 53°27' E 006°49'1 0.3
2015-Apr-20 13:34N 53°27' E 006°50'9 6.6
2015-Apr-20 12:09N 53°33' E 006°38'8 3.9
2015-Apr-20 10:04N 53°28' E 006°49'1 1.9
2015-Apr-20 09:26N 53°27' E 006°49'2 1.0
2015-Apr-20 07:19N 53°29' E 006°47'2 2.9
2015-Apr-20 06:33N 53°27' E 006°49'0 0.0
2015-Apr-20 04:24N 53°27' E 006°49'0 0.1
2015-Apr-19 23:04N 53°27' E 006°50'0 0.0
2015-Apr-19 22:29N 53°27' E 006°50'0 0.0
2015-Apr-19 21:27N 53°27' E 006°50'0 0.0
2015-Apr-19 20:32N 53°27' E 006°50'0 0.0
2015-Apr-19 19:23N 53°27' E 006°50'5 4.2
2015-Apr-19 18:10N 53°30' E 006°43'5 3.1
2015-Apr-19 16:33N 53°28' E 006°50'1 1.0
2015-Apr-19 15:33N 53°27' E 006°49'0 0.0
2015-Apr-19 08:33N 53°27' E 006°49'0 0.2
2015-Apr-19 06:31N 53°27' E 006°50'0 0.2
2015-Apr-19 04:32N 53°27' E 006°49'0 0.3
2015-Apr-19 03:28N 53°27' E 006°50'0 0.0
2015-Apr-19 02:17N 53°27' E 006°50'0 0.0
2015-Apr-18 23:22N 53°27' E 006°50'2 0.6
2015-Apr-18 19:15N 53°29' E 006°47'2 2.4
2015-Apr-18 18:14N 53°27' E 006°50'2 1.2
2015-Apr-18 16:13N 53°28' E 006°47'2 3.3
2015-Apr-18 15:33N 53°27' E 006°49'4 1.5
2015-Apr-18 13:09N 53°29' E 006°45'3 4.6
2015-Apr-18 12:27N 53°27' E 006°49'9 7.5
2015-Apr-18 11:17N 53°33' E 006°38'4 4.4
2015-Apr-18 10:16N 53°30' E 006°43'5 6.8
2015-Apr-18 09:32N 53°27' E 006°50'1 0.4
2015-Apr-18 07:32N 53°28' E 006°50'1 0.5
2015-Apr-18 05:33N 53°27' E 006°49'0 0.0
2015-Apr-18 02:33N 53°27' E 006°49'0 0.3
2015-Apr-18 01:31N 53°27' E 006°50'0 0.0
2015-Apr-18 00:18N 53°27' E 006°50'0 0.0
2015-Apr-17 23:32N 53°27' E 006°50'0 0.0
2015-Apr-17 21:13N 53°27' E 006°50'0 0.0
2015-Apr-17 19:32N 53°27' E 006°50'0 0.0
2015-Apr-17 18:08N 53°27' E 006°50'1 0.2
2015-Apr-17 12:30N 53°27' E 006°50'1 0.2
2015-Apr-17 08:31N 53°27' E 006°49'0 0.2
2015-Apr-17 07:33N 53°27' E 006°49'1 1.1
2015-Apr-17 06:33N 53°28' E 006°50'6 5.2
2015-Apr-17 05:26N 53°31' E 006°42'6 6.0
2015-Apr-17 04:26N 53°27' E 006°50'0 0.0
2015-Apr-17 03:32N 53°27' E 006°50'0 0.0
2015-Apr-17 02:30N 53°27' E 006°50'0 0.0
2015-Apr-17 01:25N 53°27' E 006°50'0 0.0
2015-Apr-17 00:31N 53°27' E 006°50'0 0.0
2015-Apr-16 23:24N 53°27' E 006°50'0 0.0
2015-Apr-16 22:22N 53°27' E 006°50'0 0.0
2015-Apr-16 21:29N 53°27' E 006°50'0 0.0
2015-Apr-16 20:31N 53°27' E 006°50'0 0.0
2015-Apr-16 19:27N 53°27' E 006°50'0 0.0
2015-Apr-16 18:33N 53°27' E 006°50'0 0.0
2015-Apr-16 17:30N 53°27' E 006°50'0 0.0
2015-Apr-16 16:31N 53°27' E 006°50'2 1.6
2015-Apr-16 15:31N 53°28' E 006°49'5 1.7
2015-Apr-16 12:26N 53°31' E 006°41'7 7.3
2015-Apr-16 11:32N 53°27' E 006°50'0 0.0
2015-Apr-16 10:32N 53°27' E 006°50'7 7.0
2015-Apr-16 09:30N 53°32' E 006°41'2 2.4
2015-Apr-16 08:29N 53°30' E 006°43'0 0.1
2015-Apr-16 07:07N 53°30' E 006°43'2 3.3
2015-Apr-16 06:33N 53°31' E 006°41'1 1.4
2015-Apr-16 05:33N 53°32' E 006°40'7 6.9
2015-Apr-16 04:33N 53°28' E 006°49'1 1.3
2015-Apr-16 03:30N 53°27' E 006°50'0 0.0
2015-Apr-16 02:32N 53°27' E 006°50'2 2.2
2015-Apr-16 01:32N 53°28' E 006°47'2 1.1
2015-Apr-15 23:33N 53°29' E 006°44'3 2.7
2015-Apr-15 22:33N 53°28' E 006°48'0 0.3
2015-Apr-15 21:33N 53°28' E 006°48'2 1.9
2015-Apr-15 20:32N 53°27' E 006°50'0 0.0
2015-Apr-15 19:31N 53°27' E 006°50'0 0.0
2015-Apr-15 18:30N 53°27' E 006°50'0 0.0
2015-Apr-15 17:31N 53°27' E 006°50'0 0.2
2015-Apr-15 16:33N 53°27' E 006°50'3 2.6
2015-Apr-15 15:33N 53°29' E 006°47'4 3.5
2015-Apr-15 14:32N 53°31' E 006°42'5 4.9
2015-Apr-15 13:33N 53°28' E 006°49'2 0.4
2015-Apr-15 09:33N 53°27' E 006°50'0 0.5
2015-Apr-15 08:33N 53°27' E 006°50'1 0.2
2015-Apr-15 05:33N 53°27' E 006°50'0 0.0
2015-Apr-15 04:24N 53°27' E 006°50'0 0.0
2015-Apr-15 03:30N 53°27' E 006°50'0 0.0
2015-Apr-15 02:30N 53°27' E 006°50'0 0.0
2015-Apr-15 01:30N 53°27' E 006°50'0 0.0
2015-Apr-15 00:30N 53°27' E 006°50'0 0.0
2015-Apr-14 23:29N 53°27' E 006°50'0 0.0
2015-Apr-14 22:18N 53°27' E 006°50'0 0.0
2015-Apr-14 21:31N 53°27' E 006°50'0 0.0
2015-Apr-14 20:30N 53°27' E 006°50'0 0.0
2015-Apr-14 19:29N 53°27' E 006°50'0 0.0
2015-Apr-14 18:31N 53°27' E 006°50'0 0.0
2015-Apr-14 17:31N 53°27' E 006°50'0 0.0
2015-Apr-14 16:29N 53°27' E 006°50'0 0.0
2015-Apr-14 15:33N 53°27' E 006°50'0 0.0
2015-Apr-14 14:28N 53°27' E 006°50'0 0.0
2015-Apr-14 13:28N 53°27' E 006°50'5 5.0
2015-Apr-14 12:25N 53°30' E 006°42'5 6.0
2015-Apr-14 11:33N 53°27' E 006°49'7 2.1
2015-Apr-14 08:16N 53°31' E 006°41'6 8.7
2015-Apr-14 07:32N 53°27' E 006°49'0 0.1
2015-Apr-14 03:31N 53°27' E 006°49'0 0.3
2015-Apr-14 02:33N 53°27' E 006°50'0 0.0
2015-Apr-14 01:30N 53°27' E 006°50'0 0.0
2015-Apr-14 00:33N 53°27' E 006°50'0 0.0
2015-Apr-13 23:33N 53°27' E 006°50'0 0.0
2015-Apr-13 22:32N 53°27' E 006°50'0 0.0
2015-Apr-13 21:33N 53°27' E 006°50'0 0.0
2015-Apr-13 20:31N 53°27' E 006°50'0 0.0
2015-Apr-13 19:31N 53°27' E 006°50'0 0.0
2015-Apr-13 18:29N 53°27' E 006°50'0 0.0
2015-Apr-13 17:33N 53°27' E 006°50'0 0.0
2015-Apr-13 16:27N 53°27' E 006°50'0 0.0
2015-Apr-13 15:33N 53°27' E 006°50'0 0.3
2015-Apr-13 14:31N 53°27' E 006°49'0 0.0
2015-Apr-13 13:29N 53°27' E 006°49'6 2.7
2015-Apr-13 11:14N 53°31' E 006°42'6 8.3
2015-Apr-13 10:30N 53°27' E 006°49'5 1.7
2015-Apr-13 07:25N 53°30' E 006°42'2 2.3
2015-Apr-13 06:31N 53°29' E 006°45'2 2.6
2015-Apr-13 05:33N 53°28' E 006°49'1 1.2
2015-Apr-13 04:32N 53°27' E 006°50'0 0.0
2015-Apr-13 03:31N 53°27' E 006°50'0 0.0
2015-Apr-13 02:31N 53°27' E 006°50'0 0.0
2015-Apr-13 01:25N 53°27' E 006°50'0 0.0
2015-Apr-13 00:31N 53°27' E 006°50'0 0.0
2015-Apr-12 23:32N 53°27' E 006°50'0 0.0
2015-Apr-12 22:29N 53°27' E 006°50'0 0.0
2015-Apr-12 21:33N 53°27' E 006°50'0 0.0
2015-Apr-12 20:26N 53°27' E 006°50'0 0.0
2015-Apr-12 19:32N 53°27' E 006°50'0 0.0
2015-Apr-12 18:31N 53°27' E 006°50'0 0.0
2015-Apr-12 17:28N 53°27' E 006°50'0 0.0
2015-Apr-12 16:32N 53°27' E 006°50'0 0.0
2015-Apr-12 15:32N 53°27' E 006°50'0 0.0
2015-Apr-12 14:26N 53°27' E 006°50'0 0.0
2015-Apr-12 13:29N 53°27' E 006°50'0 0.0
2015-Apr-12 12:27N 53°27' E 006°50'0 0.0
2015-Apr-12 11:29N 53°27' E 006°50'1 1.5
2015-Apr-12 10:34N 53°28' E 006°49'4 0.8
2015-Apr-12 05:16N 53°30' E 006°43'5 7.3
2015-Apr-12 04:32N 53°27' E 006°50'0 0.0
2015-Apr-12 03:32N 53°27' E 006°50'0 0.0
2015-Apr-12 02:29N 53°27' E 006°50'0 0.0
2015-Apr-12 01:32N 53°27' E 006°50'0 0.0
2015-Apr-12 00:33N 53°27' E 006°50'0 0.0
2015-Apr-11 23:31N 53°27' E 006°50'0 0.0
2015-Apr-11 22:28N 53°27' E 006°50'0 0.0
2015-Apr-11 21:32N 53°27' E 006°50'0 0.0
2015-Apr-11 20:32N 53°27' E 006°50'0 0.0
2015-Apr-11 19:31N 53°27' E 006°50'0 0.0
2015-Apr-11 18:33N 53°27' E 006°50'0 0.0
2015-Apr-11 17:18N 53°27' E 006°50'0 0.0
2015-Apr-11 16:33N 53°27' E 006°50'0 0.0
2015-Apr-11 15:30N 53°27' E 006°50'0 0.3
2015-Apr-11 14:33N 53°27' E 006°49'0 0.0
2015-Apr-11 13:33N 53°27' E 006°49'6 5.5
2015-Apr-11 12:32N 53°30' E 006°42'  
Track history (hours):
 
Tides and Currents Weather Stations Pressure Air Temp Water Temp Dewpoint Dewpoint Depression Visibility Wind Speed Wind Dir Waves Ship Positions

Coral Electra

Last reported at 2015-Apr-21 10:08 UTC. Time now 2015-Apr-21 13:12 UTC.
Position N 53°28' E 006°47'.

Length 14 m; draft 2 m.

Type: Port tender. MMSI: 244690019.

Date/timePositionNaut miles runAvg speedWind from/ knotsBaromVisibWave heightAir tempDewpointWater temp
2015-Apr-21 10:08N 53°28' E 006°47'2 2.3
2015-Apr-21 09:22N 53°27' E 006°49'2 0.9
2015-Apr-21 07:08N 53°28' E 006°47'2 3.0
2015-Apr-21 06:28N 53°27' E 006°49'0 0.0
2015-Apr-21 04:28N 53°27' E 006°49'0 0.1
2015-Apr-21 01:29N 53°27' E 006°50'0 0.0
2015-Apr-20 19:20N 53°27' E 006°50'3 2.4
2015-Apr-20 18:11N 53°29' E 006°46'3 1.7
2015-Apr-20 16:33N 53°27' E 006°50'0 0.4
2015-Apr-20 15:34N 53°27' E 006°49'1 0.3
2015-Apr-20 13:34N 53°27' E 006°50'9 6.6
2015-Apr-20 12:09N 53°33' E 006°38'8 3.9
2015-Apr-20 10:04N 53°28' E 006°49'1 1.9
2015-Apr-20 09:26N 53°27' E 006°49'2 1.0
2015-Apr-20 07:19N 53°29' E 006°47'2 2.9
2015-Apr-20 06:33N 53°27' E 006°49'0 0.0
2015-Apr-20 04:24N 53°27' E 006°49'0 0.1
2015-Apr-19 23:04N 53°27' E 006°50'0 0.0
2015-Apr-19 22:29N 53°27' E 006°50'0 0.0
2015-Apr-19 21:27N 53°27' E 006°50'0 0.0
2015-Apr-19 20:32N 53°27' E 006°50'0 0.0
2015-Apr-19 19:23N 53°27' E 006°50'5 4.2
2015-Apr-19 18:10N 53°30' E 006°43'5 3.1
2015-Apr-19 16:33N 53°28' E 006°50'1 1.0
2015-Apr-19 15:33N 53°27' E 006°49'0 0.0
2015-Apr-19 08:33N 53°27' E 006°49'0 0.2
2015-Apr-19 06:31N 53°27' E 006°50'0 0.2
2015-Apr-19 04:32N 53°27' E 006°49'0 0.3
2015-Apr-19 03:28N 53°27' E 006°50'0 0.0
2015-Apr-19 02:17N 53°27' E 006°50'0 0.0
2015-Apr-18 23:22N 53°27' E 006°50'2 0.6
2015-Apr-18 19:15N 53°29' E 006°47'2 2.4
2015-Apr-18 18:14N 53°27' E 006°50'2 1.2
2015-Apr-18 16:13N 53°28' E 006°47'2 3.3
2015-Apr-18 15:33N 53°27' E 006°49'4 1.5
2015-Apr-18 13:09N 53°29' E 006°45'3 4.6
2015-Apr-18 12:27N 53°27' E 006°49'9 7.5
2015-Apr-18 11:17N 53°33' E 006°38'4 4.4
2015-Apr-18 10:16N 53°30' E 006°43'5 6.8
2015-Apr-18 09:32N 53°27' E 006°50'1 0.4
2015-Apr-18 07:32N 53°28' E 006°50'1 0.5
2015-Apr-18 05:33N 53°27' E 006°49'0 0.0
2015-Apr-18 02:33N 53°27' E 006°49'0 0.3
2015-Apr-18 01:31N 53°27' E 006°50'0 0.0
2015-Apr-18 00:18N 53°27' E 006°50'0 0.0
2015-Apr-17 23:32N 53°27' E 006°50'0 0.0
2015-Apr-17 21:13N 53°27' E 006°50'0 0.0
2015-Apr-17 19:32N 53°27' E 006°50'0 0.0
2015-Apr-17 18:08N 53°27' E 006°50'1 0.2
2015-Apr-17 12:30N 53°27' E 006°50'1 0.2
2015-Apr-17 08:31N 53°27' E 006°49'0 0.2
2015-Apr-17 07:33N 53°27' E 006°49'1 1.1
2015-Apr-17 06:33N 53°28' E 006°50'6 5.2
2015-Apr-17 05:26N 53°31' E 006°42'6 6.0
2015-Apr-17 04:26N 53°27' E 006°50'0 0.0
2015-Apr-17 03:32N 53°27' E 006°50'0 0.0
2015-Apr-17 02:30N 53°27' E 006°50'0 0.0
2015-Apr-17 01:25N 53°27' E 006°50'0 0.0
2015-Apr-17 00:31N 53°27' E 006°50'0 0.0
2015-Apr-16 23:24N 53°27' E 006°50'0 0.0
2015-Apr-16 22:22N 53°27' E 006°50'0 0.0
2015-Apr-16 21:29N 53°27' E 006°50'0 0.0
2015-Apr-16 20:31N 53°27' E 006°50'0 0.0
2015-Apr-16 19:27N 53°27' E 006°50'0 0.0
2015-Apr-16 18:33N 53°27' E 006°50'0 0.0
2015-Apr-16 17:30N 53°27' E 006°50'0 0.0
2015-Apr-16 16:31N 53°27' E 006°50'2 1.6
2015-Apr-16 15:31N 53°28' E 006°49'5 1.7
2015-Apr-16 12:26N 53°31' E 006°41'7 7.3
2015-Apr-16 11:32N 53°27' E 006°50'0 0.0
2015-Apr-16 10:32N 53°27' E 006°50'7 7.0
2015-Apr-16 09:30N 53°32' E 006°41'2 2.4
2015-Apr-16 08:29N 53°30' E 006°43'0 0.1
2015-Apr-16 07:07N 53°30' E 006°43'2 3.3
2015-Apr-16 06:33N 53°31' E 006°41'1 1.4
2015-Apr-16 05:33N 53°32' E 006°40'7 6.9
2015-Apr-16 04:33N 53°28' E 006°49'1 1.3
2015-Apr-16 03:30N 53°27' E 006°50'0 0.0
2015-Apr-16 02:32N 53°27' E 006°50'2 2.2
2015-Apr-16 01:32N 53°28' E 006°47'2 1.1
2015-Apr-15 23:33N 53°29' E 006°44'3 2.7
2015-Apr-15 22:33N 53°28' E 006°48'0 0.3
2015-Apr-15 21:33N 53°28' E 006°48'2 1.9
2015-Apr-15 20:32N 53°27' E 006°50'0 0.0
2015-Apr-15 19:31N 53°27' E 006°50'0 0.0
2015-Apr-15 18:30N 53°27' E 006°50'0 0.0
2015-Apr-15 17:31N 53°27' E 006°50'0 0.2
2015-Apr-15 16:33N 53°27' E 006°50'3 2.6
2015-Apr-15 15:33N 53°29' E 006°47'4 3.5
2015-Apr-15 14:32N 53°31' E 006°42'5 4.9
2015-Apr-15 13:33N 53°28' E 006°49'2 0.4
2015-Apr-15 09:33N 53°27' E 006°50'0 0.5
2015-Apr-15 08:33N 53°27' E 006°50'1 0.2
2015-Apr-15 05:33N 53°27' E 006°50'0 0.0
2015-Apr-15 04:24N 53°27' E 006°50'0 0.0
2015-Apr-15 03:30N 53°27' E 006°50'0 0.0
2015-Apr-15 02:30N 53°27' E 006°50'0 0.0
2015-Apr-15 01:30N 53°27' E 006°50'0 0.0
2015-Apr-15 00:30N 53°27' E 006°50'0 0.0
2015-Apr-14 23:29N 53°27' E 006°50'0 0.0
2015-Apr-14 22:18N 53°27' E 006°50'0 0.0
2015-Apr-14 21:31N 53°27' E 006°50'0 0.0
2015-Apr-14 20:30N 53°27' E 006°50'0 0.0
2015-Apr-14 19:29N 53°27' E 006°50'0 0.0
2015-Apr-14 18:31N 53°27' E 006°50'0 0.0
2015-Apr-14 17:31N 53°27' E 006°50'0 0.0
2015-Apr-14 16:29N 53°27' E 006°50'0 0.0
2015-Apr-14 15:33N 53°27' E 006°50'0 0.0
2015-Apr-14 14:28N 53°27' E 006°50'0 0.0
2015-Apr-14 13:28N 53°27' E 006°50'5 5.0
2015-Apr-14 12:25N 53°30' E 006°42'5 6.0
2015-Apr-14 11:33N 53°27' E 006°49'7 2.1
2015-Apr-14 08:16N 53°31' E 006°41'6 8.7
2015-Apr-14 07:32N 53°27' E 006°49'0 0.1
2015-Apr-14 03:31N 53°27' E 006°49'0 0.3
2015-Apr-14 02:33N 53°27' E 006°50'0 0.0
2015-Apr-14 01:30N 53°27' E 006°50'0 0.0
2015-Apr-14 00:33N 53°27' E 006°50'0 0.0
2015-Apr-13 23:33N 53°27' E 006°50'0 0.0
2015-Apr-13 22:32N 53°27' E 006°50'0 0.0
2015-Apr-13 21:33N 53°27' E 006°50'0 0.0
2015-Apr-13 20:31N 53°27' E 006°50'0 0.0
2015-Apr-13 19:31N 53°27' E 006°50'0 0.0
2015-Apr-13 18:29N 53°27' E 006°50'0 0.0
2015-Apr-13 17:33N 53°27' E 006°50'0 0.0
2015-Apr-13 16:27N 53°27' E 006°50'0 0.0
2015-Apr-13 15:33N 53°27' E 006°50'0 0.3
2015-Apr-13 14:31N 53°27' E 006°49'0 0.0
2015-Apr-13 13:29N 53°27' E 006°49'6 2.7
2015-Apr-13 11:14N 53°31' E 006°42'6 8.3
2015-Apr-13 10:30N 53°27' E 006°49'5 1.7
2015-Apr-13 07:25N 53°30' E 006°42'2 2.3
2015-Apr-13 06:31N 53°29' E 006°45'2 2.6
2015-Apr-13 05:33N 53°28' E 006°49'1 1.2
2015-Apr-13 04:32N 53°27' E 006°50'0 0.0
2015-Apr-13 03:31N 53°27' E 006°50'0 0.0
2015-Apr-13 02:31N 53°27' E 006°50'0 0.0
2015-Apr-13 01:25N 53°27' E 006°50'0 0.0
2015-Apr-13 00:31N 53°27' E 006°50'0 0.0
2015-Apr-12 23:32N 53°27' E 006°50'0 0.0
2015-Apr-12 22:29N 53°27' E 006°50'0 0.0
2015-Apr-12 21:33N 53°27' E 006°50'0 0.0
2015-Apr-12 20:26N 53°27' E 006°50'0 0.0
2015-Apr-12 19:32N 53°27' E 006°50'0 0.0
2015-Apr-12 18:31N 53°27' E 006°50'0 0.0
2015-Apr-12 17:28N 53°27' E 006°50'0 0.0
2015-Apr-12 16:32N 53°27' E 006°50'0 0.0
2015-Apr-12 15:32N 53°27' E 006°50'0 0.0
2015-Apr-12 14:26N 53°27' E 006°50'0 0.0
2015-Apr-12 13:29N 53°27' E 006°50'0 0.0
2015-Apr-12 12:27N 53°27' E 006°50'0 0.0
2015-Apr-12 11:29N 53°27' E 006°50'1 1.5
2015-Apr-12 10:34N 53°28' E 006°49'4 0.8
2015-Apr-12 05:16N 53°30' E 006°43'5 7.3
2015-Apr-12 04:32N 53°27' E 006°50'0 0.0
2015-Apr-12 03:32N 53°27' E 006°50'0 0.0
2015-Apr-12 02:29N 53°27' E 006°50'0 0.0
2015-Apr-12 01:32N 53°27' E 006°50'0 0.0
2015-Apr-12 00:33N 53°27' E 006°50'0 0.0
2015-Apr-11 23:31N 53°27' E 006°50'0 0.0
2015-Apr-11 22:28N 53°27' E 006°50'0 0.0
2015-Apr-11 21:32N 53°27' E 006°50'0 0.0
2015-Apr-11 20:32N 53°27' E 006°50'0 0.0
2015-Apr-11 19:31N 53°27' E 006°50'0 0.0
2015-Apr-11 18:33N 53°27' E 006°50'0 0.0
2015-Apr-11 17:18N 53°27' E 006°50'0 0.0
2015-Apr-11 16:33N 53°27' E 006°50'0 0.0
2015-Apr-11 15:30N 53°27' E 006°50'0 0.3
2015-Apr-11 14:33N 53°27' E 006°49'0 0.0
2015-Apr-11 13:33N 53°27' E 006°49'6 5.5
2015-Apr-11 12:32N 53°30' E 006°42'  

Dump ship's entire track history